createdAt,value
2023-06-22T00:01:20.972Z,14.85
2023-06-22T00:03:48.035Z,14.85
2023-06-22T00:06:15.325Z,14.86
2023-06-22T00:08:42.370Z,14.88
2023-06-22T00:11:09.709Z,14.90
2023-06-22T00:13:36.676Z,14.91
2023-06-22T00:16:03.955Z,14.91
2023-06-22T00:18:31.991Z,14.91
2023-06-22T00:20:59.553Z,14.89
2023-06-22T00:23:27.196Z,14.90
2023-06-22T00:25:54.418Z,14.93
2023-06-22T00:28:21.554Z,14.94
2023-06-22T00:30:50.193Z,14.94
2023-06-22T00:33:17.721Z,14.93
2023-06-22T00:35:45.126Z,14.87
2023-06-22T00:38:13.413Z,14.78
2023-06-22T00:40:42.703Z,14.72
2023-06-22T00:43:09.897Z,14.68
2023-06-22T00:45:36.834Z,14.66
2023-06-22T00:48:04.363Z,14.64
2023-06-22T00:50:36.272Z,14.65
2023-06-22T00:53:10.566Z,14.66
2023-06-22T00:55:52.788Z,14.68
2023-06-22T00:58:23.140Z,14.66
2023-06-22T01:00:50.453Z,14.61
2023-06-22T01:03:18.437Z,14.56
2023-06-22T01:05:47.974Z,14.50
2023-06-22T01:08:48.788Z,14.43
2023-06-22T01:11:27.576Z,14.36
2023-06-22T01:14:34.204Z,14.32
2023-06-22T01:17:01.315Z,14.28
2023-06-22T01:19:45.078Z,14.24
2023-06-22T01:22:16.880Z,14.21
2023-06-22T01:24:56.353Z,14.22
2023-06-22T01:28:06.634Z,14.26
2023-06-22T01:30:35.006Z,14.29
2023-06-22T01:33:05.025Z,14.29
2023-06-22T01:35:32.093Z,14.29
2023-06-22T01:38:01.223Z,14.30
2023-06-22T01:40:28.389Z,14.29
2023-06-22T01:42:55.689Z,14.26
2023-06-22T01:45:22.698Z,14.21
2023-06-22T01:47:50.418Z,14.14
2023-06-22T01:50:18.453Z,14.09
2023-06-22T01:52:45.386Z,14.06
2023-06-22T01:55:12.364Z,14.03
2023-06-22T01:57:41.061Z,14.03
2023-06-22T02:00:11.018Z,14.04
2023-06-22T02:03:12.890Z,14.01
2023-06-22T02:05:51.235Z,13.96
2023-06-22T02:08:24.121Z,13.92
2023-06-22T02:10:52.285Z,13.91
2023-06-22T02:13:22.282Z,13.89
2023-06-22T02:15:49.461Z,13.89
2023-06-22T02:18:16.480Z,13.91
2023-06-22T02:20:43.592Z,13.94
2023-06-22T02:23:10.527Z,14.15
2023-06-22T02:25:37.621Z,14.58
2023-06-22T02:28:04.945Z,15.13
2023-06-22T02:30:33.070Z,15.64
2023-06-22T02:33:01.437Z,16.00
2023-06-22T02:35:32.808Z,16.41
2023-06-22T02:38:00.789Z,16.80
2023-06-22T02:40:28.226Z,17.01
2023-06-22T02:42:59.282Z,17.26
2023-06-22T02:45:26.172Z,17.45
2023-06-22T02:47:53.607Z,17.60
2023-06-22T02:50:20.616Z,17.72
2023-06-22T02:52:47.975Z,17.76
2023-06-22T02:55:15.620Z,17.77
2023-06-22T02:57:45.627Z,17.79
2023-06-22T03:00:18.166Z,17.79
2023-06-22T03:02:50.225Z,17.74
2023-06-22T03:05:19.449Z,17.68
2023-06-22T03:07:47.259Z,17.56
2023-06-22T03:10:15.134Z,17.49
2023-06-22T03:12:43.015Z,17.52
2023-06-22T03:15:11.570Z,17.58
2023-06-22T03:17:42.349Z,17.59
2023-06-22T03:23:34.166Z,18.24
2023-06-22T03:26:01.319Z,18.70
2023-06-22T03:28:28.651Z,19.06
2023-06-22T03:30:56.199Z,19.19
2023-06-22T03:33:23.941Z,19.38
2023-06-22T03:35:51.562Z,19.55
2023-06-22T03:38:18.830Z,19.78
2023-06-22T03:40:45.956Z,20.00
2023-06-22T03:43:13.933Z,20.14
2023-06-22T03:45:41.609Z,20.19
2023-06-22T03:48:12.647Z,20.07
2023-06-22T03:50:40.053Z,19.76
2023-06-22T03:53:07.218Z,19.41
2023-06-22T03:55:35.504Z,19.08
2023-06-22T03:58:07.098Z,18.82
2023-06-22T04:00:34.436Z,18.65
2023-06-22T04:03:02.013Z,18.50
2023-06-22T04:05:30.155Z,18.39
2023-06-22T04:07:57.166Z,18.24
2023-06-22T04:10:25.897Z,18.18
2023-06-22T04:12:53.707Z,18.16
2023-06-22T04:15:21.653Z,18.15
2023-06-22T04:17:48.991Z,18.13
2023-06-22T04:20:16.281Z,18.14
2023-06-22T04:22:43.794Z,18.17
2023-06-22T04:25:10.886Z,18.21
2023-06-22T04:27:41.446Z,18.26
2023-06-22T04:30:09.145Z,18.34
2023-06-22T04:32:39.503Z,18.42
2023-06-22T04:35:08.015Z,18.53
2023-06-22T04:37:35.876Z,18.63
2023-06-22T04:40:04.892Z,18.72
2023-06-22T04:42:33.238Z,18.76
2023-06-22T04:45:02.063Z,18.77
2023-06-22T04:47:29.817Z,18.79
2023-06-22T04:49:56.985Z,18.83
2023-06-22T04:52:25.970Z,18.89
2023-06-22T04:54:58.956Z,19.01
2023-06-22T04:57:33.570Z,19.11
2023-06-22T05:00:13.799Z,19.21
2023-06-22T05:02:41.609Z,19.32
2023-06-22T05:05:09.433Z,19.45
2023-06-22T05:07:37.512Z,19.61
2023-06-22T05:10:05.673Z,19.77
2023-06-22T05:12:33.359Z,19.91
2023-06-22T05:15:00.528Z,20.09
2023-06-22T05:17:27.694Z,20.34
2023-06-22T05:19:55.013Z,20.69
2023-06-22T05:22:22.275Z,21.15
2023-06-22T05:24:49.641Z,21.60
2023-06-22T05:27:17.032Z,22.13
2023-06-22T05:29:44.208Z,22.69
2023-06-22T05:32:12.086Z,23.14
2023-06-22T05:34:39.785Z,23.53
2023-06-22T05:37:07.499Z,23.83
2023-06-22T05:39:34.845Z,24.06
2023-06-22T05:42:01.853Z,24.32
2023-06-22T05:44:29.253Z,24.52
2023-06-22T05:46:56.401Z,24.65
2023-06-22T05:49:24.401Z,24.71
2023-06-22T05:51:51.748Z,24.73
2023-06-22T05:54:19.214Z,24.75
2023-06-22T05:57:52.121Z,24.74
2023-06-22T06:00:20.293Z,25.00
2023-06-22T06:02:47.540Z,25.46
2023-06-22T06:05:15.649Z,25.79
2023-06-22T06:07:43.802Z,25.98
2023-06-22T06:10:11.228Z,25.84
2023-06-22T06:12:38.653Z,25.68
2023-06-22T06:15:10.226Z,25.36
2023-06-22T06:17:54.916Z,25.09
2023-06-22T06:20:24.167Z,24.68
2023-06-22T06:22:51.241Z,24.61
2023-06-22T06:25:19.767Z,24.79
2023-06-22T06:27:47.573Z,24.95
2023-06-22T06:30:16.075Z,25.18
2023-06-22T06:32:44.017Z,25.20
2023-06-22T06:35:12.350Z,25.23
2023-06-22T06:37:43.127Z,25.60
2023-06-22T06:40:14.117Z,26.09
2023-06-22T06:42:43.316Z,26.27
2023-06-22T06:45:11.602Z,26.38
2023-06-22T06:47:40.166Z,26.40
2023-06-22T06:50:08.590Z,26.51
2023-06-22T06:52:37.873Z,26.82
2023-06-22T06:55:10.191Z,27.25
2023-06-22T06:57:38.917Z,27.67
2023-06-22T07:00:11.227Z,27.36
2023-06-22T07:02:42.705Z,26.85
2023-06-22T07:05:10.903Z,26.88
2023-06-22T07:07:39.133Z,27.02
2023-06-22T07:10:07.344Z,26.73
2023-06-22T07:12:35.018Z,26.53
2023-06-22T07:15:04.693Z,26.42
2023-06-22T07:17:32.907Z,26.36
2023-06-22T07:20:00.083Z,26.59
2023-06-22T07:22:27.185Z,27.08
2023-06-22T07:24:54.814Z,27.55
2023-06-22T07:27:22.470Z,27.95
2023-06-22T07:29:49.723Z,27.99
2023-06-22T12:27:40.088Z,26.97
2023-06-22T12:30:07.646Z,27.00
2023-06-22T12:32:34.459Z,26.97
2023-06-22T12:35:01.232Z,26.91
2023-06-22T12:37:27.794Z,26.89
2023-06-22T12:39:55.437Z,27.02
2023-06-22T12:42:22.323Z,27.19
2023-06-22T12:44:48.591Z,27.25
2023-06-22T12:47:15.665Z,27.35
2023-06-22T12:49:42.332Z,27.39
2023-06-22T12:52:14.702Z,27.39
2023-06-22T12:54:54.054Z,27.28
2023-06-22T12:57:21.783Z,27.23
2023-06-22T12:59:48.243Z,27.25
2023-06-22T13:02:16.008Z,27.20
2023-06-22T13:04:43.737Z,27.06
2023-06-22T13:07:22.074Z,26.99
2023-06-22T13:09:54.384Z,26.96
2023-06-22T13:12:21.253Z,26.96
2023-06-22T13:14:48.652Z,26.95
2023-06-22T13:17:15.718Z,26.94
2023-06-22T13:19:42.465Z,26.95
2023-06-22T13:22:31.334Z,26.95
2023-06-22T13:24:58.409Z,26.85
2023-06-22T13:27:25.076Z,26.69
2023-06-22T13:29:51.929Z,26.62
2023-06-22T13:32:21.077Z,26.61
2023-06-22T13:34:47.822Z,26.62
2023-06-22T13:37:14.801Z,26.63
2023-06-22T13:39:42.651Z,26.69
2023-06-22T13:42:09.681Z,26.74
2023-06-22T13:44:36.678Z,26.88
2023-06-22T13:47:05.312Z,26.92
2023-06-22T13:49:31.823Z,26.87
2023-06-22T13:51:58.306Z,26.75
2023-06-22T13:54:30.170Z,26.65
2023-06-22T13:56:57.354Z,26.59
2023-06-22T13:59:24.257Z,26.49
2023-06-22T14:01:51.119Z,26.38
2023-06-22T14:04:18.169Z,26.32
2023-06-22T14:06:45.714Z,26.36
2023-06-22T14:09:12.412Z,26.44
2023-06-22T14:11:38.902Z,26.49
2023-06-22T14:14:06.083Z,26.52
2023-06-22T14:16:32.858Z,26.56
2023-06-22T14:18:59.554Z,26.56
2023-06-22T14:21:27.455Z,26.53
2023-06-22T14:23:54.108Z,26.40
2023-06-22T14:26:20.794Z,26.33
2023-06-22T14:28:48.880Z,26.35
2023-06-22T14:31:15.938Z,26.34
2023-06-22T14:33:51.549Z,26.35
2023-06-22T14:36:19.315Z,26.31
